Latest Weather Observations for Horn Island

IDQ60801

Issued at 7:22 pm EST Monday 23 May 2022 (issued every 10 minutes, with the page automatically refreshed every 10 minutes)

About weather observations | Map of weather stations | Latest weather observations for QLD | Other Formats
Station Details ID: 027058 Name: HORN ISLAND Lat: -10.58 Lon: 142.29 Height: 4.0 m
Data from the previous 72 hours. | See also: Recent months at Horn Island
Date/Time
EST
Temp
°C
App
Temp
°C
Dew
Point
°C
Rel
Hum
%
Delta-T
°C
Wind Press
QNH
hPa
Press
MSL
hPa
Rain since
9am
mm
Dir  Spd
km/h
Gust
km/h
Spd
kts
Gust
kts
23/07:00pm 27.6 29.4 23.6 79 2.7 ESE 20 30 11 16 1011.1 1011.1 0.0
23/06:30pm 27.8 29.5 23.4 77 3.0 SE 20 30 11 16 1010.7 1010.7 0.0
23/06:00pm 28.2 29.3 23.6 76 3.2 ESE 24 33 13 18 1010.3 1010.3 0.0
23/05:30pm 28.7 30.1 23.6 74 3.5 ESE 22 33 12 18 1010.0 1010.0 0.0
23/05:00pm 29.2 30.5 23.4 71 4.0 ESE 22 33 12 18 1009.5 1009.5 0.0
23/04:30pm 29.8 31.1 24.0 71 4.0 ESE 24 33 13 18 1009.4 1009.4 0.0
23/04:00pm 29.7 30.8 23.6 69 4.2 ESE 24 33 13 18 1009.4 1009.4 0.0
23/03:30pm 30.0 30.2 23.4 67 4.5 E 28 37 15 20 1009.3 1009.3 0.0
23/03:00pm 30.2 30.6 23.1 65 4.9 ESE 26 33 14 18 1009.6 1009.6 0.0
23/02:30pm 30.4 31.1 24.3 70 4.3 ESE 28 35 15 19 1009.7 1009.7 0.0
23/02:00pm 30.2 30.7 23.9 69 4.4 E 28 35 15 19 1009.7 1009.7 0.0
23/01:30pm 30.3 30.8 24.0 69 4.4 E 28 35 15 19 1010.0 1010.0 0.0
23/01:00pm 30.5 32.2 24.6 70 4.1 ESE 24 35 13 19 1010.6 1010.6 0.0
23/12:30pm 30.2 31.5 24.1 70 4.2 E 24 33 13 18 1011.1 1011.1 0.0
23/12:00pm 30.7 31.6 23.9 67 4.7 E 26 37 14 20 1011.6 1011.6 0.0
23/11:30am 30.2 30.5 23.6 67 4.6 ESE 28 37 15 20 1011.6 1011.6 0.0
23/11:00am 30.0 30.9 23.4 67 4.5 E 24 33 13 18 1011.9 1011.9 0.0
23/10:30am 29.7 30.4 22.9 67 4.6 ESE 24 32 13 17 1012.4 1012.4 0.0
23/10:00am 29.7 31.3 23.9 71 4.0 ESE 22 30 12 16 1012.5 1012.5 0.0
23/09:30am 29.1 30.0 23.3 71 4.0 ESE 24 33 13 18 1012.5 1012.5 0.0
23/09:00am 29.2 31.0 24.3 75 3.4 ESE 22 28 12 15 1012.3 1012.3 0.0
23/08:30am 28.7 31.2 23.8 75 3.4 SE 17 22 9 12 1012.1 1012.1 0.0
23/08:00am 28.1 30.5 23.7 77 3.0 SE 17 26 9 14 1012.0 1012.0 0.0
23/07:30am 27.2 29.9 23.4 80 2.6 SE 15 22 8 12 1011.7 1011.7 0.0
23/07:00am 26.6 28.8 23.3 82 2.3 ESE 17 24 9 13 1011.1 1011.1 0.0
23/06:30am 26.3 29.3 23.4 84 2.0 SE 13 17 7 9 1010.7 1010.7 0.0
23/06:00am 26.3 29.0 23.4 84 2.0 ESE 15 20 8 11 1010.4 1010.4 0.0
23/05:30am 26.4 29.0 23.3 83 2.1 ESE 15 22 8 12 1010.3 1010.3 0.0
23/05:00am 26.3 28.8 23.2 83 2.1 SE 15 19 8 10 1010.1 1010.1 0.0
23/04:30am 26.3 29.3 23.4 84 2.0 SE 13 20 7 11 1010.1 1010.1 0.0
23/04:00am 26.5 29.0 23.2 82 2.2 SE 15 26 8 14 1010.0 1010.0 0.0
23/03:30am 26.7 28.9 23.2 81 2.4 ESE 17 24 9 13 1009.9 1009.9 0.0
23/03:00am 26.7 29.4 23.4 82 2.3 ESE 15 20 8 11 1010.1 1010.1 0.0
23/02:30am 26.4 29.2 23.7 85 1.9 ESE 15 19 8 10 1010.2 1010.2 0.0
23/02:00am 26.3 29.1 23.6 85 1.8 SE 15 19 8 10 1010.4 1010.4 0.0
23/01:30am 26.3 29.1 23.6 85 1.8 SE 15 19 8 10 1010.5 1010.5 0.0
23/01:00am 26.4 29.1 23.5 84 2.0 SE 15 19 8 10 1010.8 1010.8 0.0
23/12:30am 26.5 29.0 23.2 82 2.2 SE 15 26 8 14 1010.9 1010.9 0.0
23/12:00am 26.6 28.8 23.3 82 2.3 SE 17 24 9 13 1011.0 1011.0 0.0
 
Date/Time
EST
Temp
°C
App
Temp
°C
Dew
Point
°C
Rel
Hum
%
Delta-T
°C
Wind Press
QNH
hPa
Press
MSL
hPa
Rain since
9am
mm
Dir  Spd
km/h
Gust
km/h
Spd
kts
Gust
kts
22/11:30pm 26.6 28.9 23.5 83 2.1 SE 17 24 9 13 1011.0 1011.0 0.0
22/11:00pm 26.6 29.0 23.7 84 2.0 SE 17 24 9 13 1011.0 1011.0 0.0
22/10:30pm 26.7 29.4 23.4 82 2.3 SE 15 20 8 11 1011.0 1011.0 0.0
22/10:00pm 26.8 29.5 23.5 82 2.3 SE 15 20 8 11 1011.1 1011.1 0.0
22/09:30pm 26.9 29.3 23.6 82 2.3 SE 17 20 9 11 1011.1 1011.1 0.0
22/09:00pm 27.0 30.2 23.7 82 2.3 SE 13 20 7 11 1011.1 1011.1 0.0
22/08:30pm 27.1 29.7 23.3 80 2.6 SE 15 20 8 11 1011.0 1011.0 0.0
22/08:00pm 27.3 29.9 23.3 79 2.7 SE 15 22 8 12 1010.7 1010.7 0.0
22/07:30pm 27.4 29.7 23.4 79 2.7 SE 17 24 9 13 1010.3 1010.3 0.0
22/07:00pm 27.5 29.2 23.1 77 3.0 ESE 19 28 10 15 1009.9 1009.9 0.0
22/06:30pm 27.6 29.3 23.0 76 3.1 ESE 19 26 10 14 1009.6 1009.6 0.0
22/06:00pm 28.0 29.7 23.4 76 3.2 ESE 20 28 11 15 1009.2 1009.2 0.0
22/05:30pm 28.6 30.4 23.3 73 3.6 E 19 26 10 14 1008.8 1008.8 0.0
22/05:00pm 29.1 30.5 23.5 72 3.9 E 22 30 12 16 1008.5 1008.5 0.0
22/04:30pm 29.6 31.2 23.3 69 4.3 E 20 30 11 16 1008.3 1008.3 0.0
22/04:00pm 29.6 30.5 23.3 69 4.3 E 24 32 13 17 1008.1 1008.1 0.0
22/03:30pm 29.9 31.0 23.6 69 4.3 E 24 32 13 17 1008.0 1008.0 0.0
22/03:00pm 29.7 30.5 23.2 68 4.5 E 24 33 13 18 1008.3 1008.3 0.0
22/02:30pm 30.3 30.7 23.2 65 4.9 E 26 35 14 19 1008.5 1008.5 0.0
22/02:00pm 30.3 31.6 24.0 69 4.4 E 24 32 13 17 1008.7 1008.7 0.0
22/01:30pm 30.6 31.1 23.3 65 5.0 E 26 37 14 20 1009.0 1009.0 0.0
22/01:00pm 30.6 31.5 23.3 65 5.0 E 24 33 13 18 1009.4 1009.4 0.0
22/12:30pm 30.1 30.4 23.0 65 4.9 ESE 26 39 14 21 1009.7 1009.7 0.0
22/12:00pm 30.3 31.3 24.2 70 4.2 ESE 26 35 14 19 1010.1 1010.1 0.0
22/11:30am 30.0 30.6 23.4 67 4.5 ESE 26 33 14 18 1010.4 1010.4 0.0
22/11:00am 29.8 30.9 23.0 67 4.7 ESE 22 30 12 16 1010.7 1010.7 0.0
22/10:30am 29.9 30.7 23.1 67 4.7 ESE 24 32 13 17 1011.0 1011.0 0.0
22/10:00am 29.6 31.7 23.8 71 4.0 SE 19 28 10 15 1011.1 1011.1 0.0
22/09:30am 28.8 31.2 23.7 74 3.5 SE 17 24 9 13 1011.2 1011.2 0.0
22/09:00am 28.6 30.9 23.5 74 3.5 SE 17 24 9 13 1011.1 1011.1 0.0
22/08:30am 28.0 30.0 22.9 74 3.5 SE 17 22 9 12 1010.9 1010.9 0.0
22/08:00am 27.1 29.7 23.3 80 2.6 SSE 15 22 8 12 1010.6 1010.6 0.0
22/07:30am 26.7 30.8 24.0 85 1.9 SE 9 11 5 6 1010.3 1010.3 0.0
22/07:00am 25.8 29.6 23.5 87 1.6 SSE 9 13 5 7 1010.1 1010.1 0.0
22/06:30am 25.4 29.1 23.3 88 1.4 SSE 9 11 5 6 1009.9 1009.9 0.0
22/06:00am 25.7 29.4 23.2 86 1.7 SE 9 13 5 7 1009.6 1009.6 0.0
22/05:30am 25.6 29.2 23.1 86 1.7 SSE 9 13 5 7 1009.4 1009.4 0.0
22/05:00am 25.7 29.0 23.2 86 1.7 SSE 11 15 6 8 1009.2 1009.2 0.0
22/04:30am 25.5 29.1 23.0 86 1.7 SE 9 13 5 7 1009.2 1009.2 0.0
22/04:00am 25.6 29.3 23.3 87 1.6 SSE 9 15 5 8 1009.2 1009.2 0.0
22/03:30am 25.7 29.5 23.4 87 1.6 SSE 9 13 5 7 1009.4 1009.4 0.0
22/03:00am 25.7 29.0 23.2 86 1.7 SSE 11 13 6 7 1009.8 1009.8 0.0
22/02:30am 25.9 29.6 23.2 85 1.8 SSE 9 13 5 7 1010.0 1010.0 0.0
22/02:00am 26.0 28.9 23.1 84 2.0 SSE 13 19 7 10 1010.2 1010.2 0.0
22/01:30am 26.2 29.2 23.3 84 2.0 SE 13 19 7 10 1010.4 1010.4 0.0
22/01:00am 26.2 29.1 23.1 83 2.1 SE 13 17 7 9 1010.6 1010.6 0.0
22/12:30am 26.3 28.7 23.0 82 2.2 SE 15 22 8 12 1010.9 1010.9 0.0
22/12:00am 26.5 28.5 23.0 81 2.4 SE 17 26 9 14 1010.9 1010.9 0.0
 
Date/Time
EST
Temp
°C
App
Temp
°C
Dew
Point
°C
Rel
Hum
%
Delta-T
°C
Wind Press
QNH
hPa
Press
MSL
hPa
Rain since
9am
mm
Dir  Spd
km/h
Gust
km/h
Spd
kts
Gust
kts
21/11:30pm 26.4 29.0 23.3 83 2.1 SE 15 19 8 10 1011.0 1011.0 0.0
21/11:00pm 26.4 29.0 23.3 83 2.1 SE 15 19 8 10 1011.0 1011.0 0.0
21/10:30pm 26.6 29.6 23.3 82 2.3 SE 13 19 7 10 1011.1 1011.1 0.0
21/10:00pm 26.8 29.3 23.1 80 2.5 SE 15 24 8 13 1011.2 1011.2 0.0
21/09:30pm 26.9 28.7 23.2 80 2.5 SE 19 24 10 13 1011.3 1011.3 0.0
21/09:00pm 26.8 29.8 23.3 81 2.4 SE 13 17 7 9 1011.1 1011.1 0.0
21/08:30pm 27.0 29.4 23.0 79 2.7 SE 15 19 8 10 1011.0 1011.0 0.0
21/08:00pm 27.1 29.1 22.9 78 2.9 SE 17 20 9 11 1010.8 1010.8 0.0
21/07:30pm 27.1 29.1 22.9 78 2.9 SE 17 22 9 12 1010.4 1010.4 0.0
21/07:00pm 27.3 28.8 22.7 76 3.1 ESE 19 28 10 15 1010.0 1010.0 0.0
21/06:30pm 27.4 29.0 22.8 76 3.1 SE 19 22 10 12 1009.6 1009.6 0.0
21/06:00pm 27.8 28.7 22.7 74 3.5 ESE 22 32 12 17 1009.4 1009.4 0.0
21/05:30pm 28.4 29.2 22.4 70 4.1 ESE 22 30 12 16 1009.1 1009.1 0.0
21/05:00pm 28.9 29.4 22.6 69 4.3 ESE 24 35 13 19 1008.8 1008.8 0.0
21/04:30pm 29.2 29.4 22.7 68 4.4 ESE 26 33 14 18 1008.8 1008.8 0.0
21/04:00pm 29.6 30.0 23.1 68 4.5 ESE 26 37 14 20 1008.8 1008.8 0.0
21/03:30pm 29.7 29.6 22.9 67 4.6 ESE 28 35 15 19 1008.8 1008.8 0.0
21/03:00pm 30.3 30.7 23.7 68 4.6 ESE 28 37 15 20 1009.1 1009.1 0.0
21/02:30pm 30.4 31.1 23.6 67 4.7 E 26 35 14 19 1009.4 1009.4 0.0
21/02:00pm 30.3 30.5 23.5 67 4.7 ESE 28 35 15 19 1009.7 1009.7 0.0
21/01:30pm 30.2 30.2 23.1 65 4.9 ESE 28 39 15 21 1010.0 1010.0 0.0
21/01:00pm 30.6 31.2 23.5 66 4.9 ESE 26 37 14 20 1010.4 1010.4 0.0
21/12:30pm 30.5 31.4 23.9 68 4.6 ESE 26 35 14 19 1010.9 1010.9 0.0
21/12:00pm 30.1 30.7 23.5 67 4.6 ESE 26 35 14 19 1011.2 1011.2 0.0
21/11:30am 29.9 29.9 23.1 67 4.7 ESE 28 37 15 20 1011.6 1011.6 0.0
21/11:00am 29.7 30.7 22.9 67 4.6 ESE 22 35 12 19 1012.0 1012.0 0.0
21/10:30am 28.7 30.4 23.4 73 3.6 SE 20 28 11 15 1012.3 1012.3 0.0
21/10:00am 28.5 29.4 23.9 76 3.2 SE 26 33 14 18 1012.7 1012.7 0.0
21/09:30am 28.4 30.2 23.3 74 3.5 SE 19 28 10 15 1012.7 1012.7 0.0
21/09:00am 28.0 29.8 23.2 75 3.3 SE 19 26 10 14 1012.6 1012.6 0.0
21/08:30am 27.0 29.4 23.7 82 2.3 SSE 17 26 9 14 1012.6 1012.6 0.0
21/08:00am 27.2 29.7 23.2 79 2.7 SSE 15 22 8 12 1012.2 1012.2 0.0
21/07:30am 26.6 29.6 23.3 82 2.3 SSE 13 17 7 9 1012.2 1012.2 0.0
21/07:00am 25.6 28.7 22.9 85 1.8 SSE 11 15 6 8 1012.0 1012.0 0.0
21/06:30am 25.5 28.2 22.8 85 1.8 SSE 13 17 7 9 1011.7 1011.7 0.0
21/06:00am 25.5 28.6 22.8 85 1.8 SSE 11 17 6 9 1011.5 1011.5 0.0
21/05:30am 25.5 28.2 22.8 85 1.8 SSE 13 17 7 9 1011.1 1011.1 0.0
21/05:00am 25.5 28.3 23.0 86 1.7 SSE 13 17 7 9 1011.0 1011.0 0.0
21/04:30am 25.6 28.3 22.9 85 1.8 SE 13 19 7 10 1011.0 1011.0 0.0
21/04:00am 25.7 28.5 23.0 85 1.8 SSE 13 19 7 10 1010.8 1010.8 0.0
21/03:30am 25.6 28.5 23.1 86 1.7 SSE 13 19 7 10 1010.6 1010.6 0.0
21/03:00am 25.7 28.6 23.2 86 1.7 SSE 13 17 7 9 1010.9 1010.9 0.0
21/02:30am 25.7 28.6 23.2 86 1.7 SSE 13 17 7 9 1011.0 1011.0 0.0
21/02:00am 25.9 28.1 23.2 85 1.8 SSE 17 24 9 13 1011.1 1011.1 0.0
21/01:30am 26.0 29.0 23.3 85 1.8 SSE 13 20 7 11 1011.3 1011.3 0.0
21/01:00am 26.1 29.0 23.2 84 2.0 SSE 13 20 7 11 1011.5 1011.5 0.0
21/12:30am 26.1 29.0 23.2 84 2.0 SE 13 19 7 10 1011.9 1011.9 0.0
21/12:00am 26.2 29.1 23.1 83 2.1 SSE 13 20 7 11 1012.0 1012.0 0.0
 
Date/Time
EST
Temp
°C
App
Temp
°C
Dew
Point
°C
Rel
Hum
%
Delta-T
°C
Wind Press
QNH
hPa
Press
MSL
hPa
Rain since
9am
mm
Dir  Spd
km/h
Gust
km/h
Spd
kts
Gust
kts
20/11:30pm 26.3 29.2 23.2 83 2.1 SSE 13 20 7 11 1012.2 1012.2 0.0
20/11:00pm 26.2 28.9 22.9 82 2.2 SSE 13 17 7 9 1012.2 1012.2 0.0
20/10:30pm 26.4 29.1 22.9 81 2.4 SSE 13 19 7 10 1012.4 1012.4 0.0
20/10:00pm 26.3 29.0 22.8 81 2.4 SE 13 20 7 11 1012.4 1012.4 0.0
20/09:30pm 26.4 29.0 22.7 80 2.5 SE 13 20 7 11 1012.3 1012.3 0.0
20/09:00pm 26.5 29.1 22.6 79 2.6 SE 13 19 7 10 1012.2 1012.2 0.0
20/08:30pm 26.5 28.8 22.1 77 3.0 SE 13 17 7 9 1012.2 1012.2 0.0
20/08:00pm 26.6 28.8 21.8 75 3.2 SE 13 17 7 9 1012.1 1012.1 0.0
20/07:30pm 26.7 29.0 22.1 76 3.1 SE 13 17 7 9 1011.8 1011.8 0.0

Other formats

Comma delimited format used in spreadsheet applications
http://www.bom.gov.au/fwo/IDQ60801/IDQ60801.94174.axf

JavaScript Object Notation format (JSON) in row-major order
http://www.bom.gov.au/fwo/IDQ60801/IDQ60801.94174.json

Data quality

Most of these data are generated automatically and are frequently updated. Quality checks on data are not normally performed. It is possible for incorrect values to appear. Refer to information at About Latest Weather Observations and please check the disclaimer before using these data.